Time;durP1;ratioP1;P1;durP2;ratioP2;P2;SDS_P1;SDS_P2;PMS_P1;PMS_P2;Temp;Humidity;BMP_temperature;BMP_pressure;BME280_temperature;BME280_humidity;BME280_pressure;Samples;Min_cycle;Max_cycle;Signal;HPM_P1;HPM_P2
2023/06/28 00:00:18;;;;;;;;;;;;;;;16.40;75.74;101810.34;5010788;28;1201;-80
2023/06/28 00:02:43;;;;;;;;;;;;;;;16.38;76.24;101814.88;5010642;28;1373;-81
2023/06/28 00:05:09;;;;;;;;;;;;;;;16.35;76.07;101807.31;5011267;28;1620;-81
2023/06/28 00:07:34;;;;;;;;;;;;;;;16.32;75.91;101810.19;5013821;28;1017;-80
2023/06/28 00:09:59;;;;;;;;;;;;;;;16.30;75.70;101806.91;5015054;28;1308;-82
2023/06/28 00:12:26;;;;;;;;;;;;;;;16.30;75.29;101812.13;5004697;28;1898;-80
2023/06/28 00:14:52;;;;;;;;;;;;;;;16.29;75.36;101810.50;5003023;28;1241;-81
2023/06/28 00:17:17;;;;;;;;;;;;;;;16.26;75.74;101802.91;5013843;28;1330;-81
2023/06/28 00:19:47;;;;;;;;;;;;;;;16.26;75.52;101810.75;5000545;28;1371;-81
2023/06/28 00:22:16;;;;;;;;;;;;;;;16.26;76.07;101813.38;5006665;28;1206;-81
2023/06/28 00:24:41;;;;;;;;;;;;;;;16.25;75.62;101814.34;5005001;28;1115;-80
2023/06/28 00:27:06;;;;;;;;;;;;;;;16.25;76.31;101814.34;5003949;28;1121;-81
2023/06/28 00:29:32;;;;;;;;;;;;;;;16.22;75.97;101814.59;5009357;28;1378;-80
2023/06/28 00:31:57;;;;;;;;;;;;;;;16.22;75.96;101819.84;5001723;28;1898;-80
2023/06/28 00:34:22;;;;;;;;;;;;;;;16.25;76.29;101818.75;5008868;28;1114;-81
2023/06/28 00:36:47;;;;;;;;;;;;;;;16.22;76.27;101814.59;5005578;28;1112;-81
2023/06/28 00:39:13;;;;;;;;;;;;;;;16.23;76.48;101810.19;5007783;28;1132;-82
2023/06/28 00:41:38;;;;;;;;;;;;;;;16.32;75.98;101810.19;5005672;28;1691;-82
2023/06/28 00:44:04;;;;;;;;;;;;;;;16.30;76.14;101812.13;5007344;28;1165;-81
2023/06/28 00:46:29;;;;;;;;;;;;;;;16.27;76.13;101807.16;5007705;28;1254;-81
2023/06/28 00:48:55;;;;;;;;;;;;;;;16.25;76.28;101809.09;5004978;28;1430;-81
2023/06/28 00:51:20;;;;;;;;;;;;;;;16.23;77.07;101811.03;5009844;28;1276;-80
2023/06/28 00:53:45;;;;;;;;;;;;;;;16.21;76.64;101812.94;5004460;28;1894;-82
2023/06/28 00:56:11;;;;;;;;;;;;;;;16.25;77.22;101806.47;5006232;28;1087;-80
2023/06/28 00:58:36;;;;;;;;;;;;;;;16.28;77.19;101814.03;5006891;28;1637;-81
2023/06/28 01:01:01;;;;;;;;;;;;;;;16.24;77.37;101812.69;5000736;28;1274;-81
2023/06/28 01:03:26;;;;;;;;;;;;;;;16.20;77.83;101811.31;5004979;28;1527;-81
2023/06/28 01:05:52;;;;;;;;;;;;;;;16.17;77.80;101811.56;5001685;28;1335;-80
2023/06/28 01:08:18;;;;;;;;;;;;;;;16.17;78.19;101807.19;5006992;28;1341;-82
2023/06/28 01:10:43;;;;;;;;;;;;;;;16.19;78.30;101809.66;5008461;28;1139;-81
2023/06/28 01:13:09;;;;;;;;;;;;;;;16.24;78.78;101801.41;5010637;28;1886;-81
2023/06/28 01:15:34;;;;;;;;;;;;;;;16.29;78.53;101802.63;5008666;28;1559;-78
2023/06/28 01:18:00;;;;;;;;;;;;;;;16.37;78.54;101797.50;5006776;28;1388;-81
2023/06/28 01:20:26;;;;;;;;;;;;;;;16.43;78.28;101796.13;5015527;28;1547;-81
2023/06/28 01:22:55;;;;;;;;;;;;;;;16.47;78.49;101797.50;5010863;28;1460;-79
2023/06/28 01:25:20;;;;;;;;;;;;;;;16.50;78.04;101796.41;5006914;28;902;-81
2023/06/28 01:27:46;;;;;;;;;;;;;;;16.50;77.87;101797.22;5006185;28;1920;-81
2023/06/28 01:30:14;;;;;;;;;;;;;;;16.51;78.12;101795.41;5006382;28;1293;-82
2023/06/28 01:32:39;;;;;;;;;;;;;;;16.51;78.20;101793.63;5008131;28;1894;-78
2023/06/28 01:35:05;;;;;;;;;;;;;;;16.55;78.42;101799.44;5005719;28;1673;-81
2023/06/28 01:37:30;;;;;;;;;;;;;;;16.54;78.05;101803.00;5008064;28;1394;-82
2023/06/28 01:39:57;;;;;;;;;;;;;;;16.46;78.17;101798.50;5005722;28;1280;-80
2023/06/28 01:42:22;;;;;;;;;;;;;;;16.37;78.49;101804.53;5005223;28;1724;-82
2023/06/28 01:44:47;;;;;;;;;;;;;;;16.29;78.31;101799.19;5002335;28;1391;-80
2023/06/28 01:47:13;;;;;;;;;;;;;;;16.21;78.51;101802.47;5004677;28;1798;-82
2023/06/28 01:49:38;;;;;;;;;;;;;;;16.14;79.36;101796.16;5003731;28;1123;-81
2023/06/28 01:52:04;;;;;;;;;;;;;;;16.12;79.12;101798.09;5003462;28;2013;-81
2023/06/28 01:54:29;;;;;;;;;;;;;;;16.15;79.29;101797.78;5005275;28;1069;-81
2023/06/28 01:56:54;;;;;;;;;;;;;;;16.19;79.00;101793.94;4998456;28;1660;-80
2023/06/28 01:59:19;;;;;;;;;;;;;;;16.24;78.73;101802.22;5002842;28;1073;-82
2023/06/28 02:01:45;;;;;;;;;;;;;;;16.28;79.01;101803.56;5023863;28;1283;-82
2023/06/28 02:04:10;;;;;;;;;;;;;;;16.31;78.92;101798.06;5003588;28;1215;-82
2023/06/28 02:06:38;;;;;;;;;;;;;;;16.34;79.19;101797.78;5006607;28;1316;-82
2023/06/28 02:09:03;;;;;;;;;;;;;;;16.36;79.18;101800.28;5002107;28;1013;-82
2023/06/28 02:11:29;;;;;;;;;;;;;;;16.35;79.52;101802.06;5008791;28;1222;-82
2023/06/28 02:13:54;;;;;;;;;;;;;;;16.36;79.12;101801.09;4994370;28;1890;-81
2023/06/28 02:16:22;;;;;;;;;;;;;;;16.35;79.18;101799.47;5021060;28;1684;-80
2023/06/28 02:18:49;;;;;;;;;;;;;;;16.35;79.06;101788.97;4999914;28;1324;-81
2023/06/28 02:21:14;;;;;;;;;;;;;;;16.38;78.88;101799.16;4999981;28;1509;-81
2023/06/28 02:23:39;;;;;;;;;;;;;;;16.37;79.47;101787.03;5005997;28;1273;-81
2023/06/28 02:26:05;;;;;;;;;;;;;;;16.37;79.03;101792.28;5004274;28;1638;-81
2023/06/28 02:28:30;;;;;;;;;;;;;;;16.38;79.39;101787.88;5007033;28;1312;-82
2023/06/28 02:30:55;;;;;;;;;;;;;;;16.37;79.39;101787.03;5012172;28;1510;-81
2023/06/28 02:33:21;;;;;;;;;;;;;;;16.38;79.52;101783.44;5006102;28;1959;-81
2023/06/28 02:35:46;;;;;;;;;;;;;;;16.39;80.15;101777.25;5007132;28;1199;-81
2023/06/28 02:38:11;;;;;;;;;;;;;;;16.39;79.76;101777.25;4999625;28;1102;-82
2023/06/28 02:40:36;;;;;;;;;;;;;;;16.40;79.96;101776.31;5000850;28;1177;-81
2023/06/28 02:43:01;;;;;;;;;;;;;;;16.39;80.17;101774.63;5003034;28;1343;-81
2023/06/28 02:45:27;;;;;;;;;;;;;;;16.40;79.97;101781.53;4999919;28;1210;-82
2023/06/28 02:47:52;;;;;;;;;;;;;;;16.39;80.05;101782.47;5000777;28;1658;-80
2023/06/28 02:50:17;;;;;;;;;;;;;;;16.41;79.85;101783.19;5004582;28;1268;-79
2023/06/28 02:52:42;;;;;;;;;;;;;;;16.41;80.36;101780.56;5002975;28;1899;-82
2023/06/28 02:55:08;;;;;;;;;;;;;;;16.38;79.76;101780.84;4998332;28;1288;-82
2023/06/28 02:57:34;;;;;;;;;;;;;;;16.32;79.76;101784.00;5002931;28;1326;-81
2023/06/28 02:59:59;;;;;;;;;;;;;;;16.30;79.76;101774.66;5005162;28;1240;-83
2023/06/28 03:02:24;;;;;;;;;;;;;;;16.26;79.38;101779.34;5007800;28;1276;-82
2023/06/28 03:04:49;;;;;;;;;;;;;;;16.22;79.32;101777.94;5003729;28;1251;-82
2023/06/28 03:07:15;;;;;;;;;;;;;;;16.16;79.80;101779.31;5000389;28;1308;-83
2023/06/28 03:09:41;;;;;;;;;;;;;;;16.16;79.29;101773.28;5011261;28;1290;-83
2023/06/28 03:12:06;;;;;;;;;;;;;;;16.13;79.37;101773.56;5010900;28;1971;-81
2023/06/28 03:14:32;;;;;;;;;;;;;;;16.10;79.30;101773.81;5003874;28;1563;-80
2023/06/28 03:16:57;;;;;;;;;;;;;;;16.10;79.67;101774.66;5003969;28;1370;-82
2023/06/28 03:19:22;;;;;;;;;;;;;;;16.10;79.63;101768.59;5005808;28;1627;-82
2023/06/28 03:21:47;;;;;;;;;;;;;;;16.08;79.64;101762.69;5004521;28;1241;-81
2023/06/28 03:24:12;;;;;;;;;;;;;;;16.06;79.71;101762.81;5010517;28;1239;-81
2023/06/28 03:26:38;;;;;;;;;;;;;;;16.05;79.56;101765.56;5009782;28;1303;-81
2023/06/28 03:29:03;;;;;;;;;;;;;;;16.04;79.54;101763.91;5003914;28;1205;-82
2023/06/28 03:31:31;;;;;;;;;;;;;;;15.99;79.66;101766.94;5013374;28;1412;-82
2023/06/28 03:33:56;;;;;;;;;;;;;;;15.97;79.62;101762.81;5005654;28;1964;-83
2023/06/28 03:36:23;;;;;;;;;;;;;;;15.91;79.47;101765.00;5019770;28;1348;-80
2023/06/28 03:38:48;;;;;;;;;;;;;;;15.91;79.96;101764.19;5012094;28;1507;-81
2023/06/28 03:41:14;;;;;;;;;;;;;;;15.89;79.63;101766.94;5008034;28;1257;-81
2023/06/28 03:43:39;;;;;;;;;;;;;;;15.90;79.89;101762.53;5006934;28;1370;-83
2023/06/28 03:46:04;;;;;;;;;;;;;;;15.90;79.72;101763.38;5021509;28;1137;-83
2023/06/28 03:48:30;;;;;;;;;;;;;;;15.87;79.61;101755.78;5008466;28;1063;-84
2023/06/28 03:50:55;;;;;;;;;;;;;;;15.86;80.03;101759.34;5004765;28;1210;-82
2023/06/28 03:53:20;;;;;;;;;;;;;;;15.84;80.49;101758.69;5003091;28;1902;-83
2023/06/28 03:55:45;;;;;;;;;;;;;;;15.77;80.04;101762.81;5006220;28;1205;-83
2023/06/28 03:58:11;;;;;;;;;;;;;;;15.73;80.83;101761.41;5013465;28;1179;-82
2023/06/28 04:00:36;;;;;;;;;;;;;;;15.69;80.92;101760.03;4999517;28;1523;-83
2023/06/28 04:03:02;;;;;;;;;;;;;;;15.68;81.08;101763.63;5007582;28;1377;-84
2023/06/28 04:05:27;;;;;;;;;;;;;;;15.65;81.49;101769.97;5007153;28;1022;-82
2023/06/28 04:07:57;;;;;;;;;;;;;;;15.70;81.44;101763.47;5010283;28;1312;-82
2023/06/28 04:10:22;;;;;;;;;;;;;;;15.70;81.45;101766.91;5015059;28;1508;-84
2023/06/28 04:12:48;;;;;;;;;;;;;;;15.71;81.48;101762.50;5014301;28;1894;-82
2023/06/28 04:15:13;;;;;;;;;;;;;;;15.73;81.51;101764.03;5009115;28;1294;-80
2023/06/28 04:17:38;;;;;;;;;;;;;;;15.70;81.52;101753.84;5002729;28;1563;-80
2023/06/28 04:20:07;;;;;;;;;;;;;;;15.68;81.95;101753.16;5000268;28;1400;-81
2023/06/28 04:22:32;;;;;;;;;;;;;;;15.67;82.05;101751.50;5010971;28;1170;-81
2023/06/28 04:24:58;;;;;;;;;;;;;;;15.65;82.38;101758.63;5007834;28;1282;-82
2023/06/28 04:27:23;;;;;;;;;;;;;;;15.63;81.92;101756.16;5012759;28;1251;-82
2023/06/28 04:29:48;;;;;;;;;;;;;;;15.63;82.15;101760.56;5007567;28;1265;-80
2023/06/28 04:32:23;;;;;;;;;;;;;;;15.61;82.33;101762.47;5012055;28;1983;-82
2023/06/28 04:34:53;;;;;;;;;;;;;;;15.59;82.06;101764.38;5006776;28;1593;-80
2023/06/28 04:37:22;;;;;;;;;;;;;;;15.59;82.37;101759.16;5012615;28;1432;-82
2023/06/28 04:39:47;;;;;;;;;;;;;;;15.54;82.23;101759.56;5008702;28;1199;-80
2023/06/28 04:42:15;;;;;;;;;;;;;;;15.46;82.52;101763.81;5010824;28;1178;-82
2023/06/28 04:44:44;;;;;;;;;;;;;;;15.44;82.63;101760.50;5008216;28;1665;-82
2023/06/28 04:47:15;;;;;;;;;;;;;;;15.41;83.01;101757.19;5008804;28;1231;-81
2023/06/28 04:49:42;;;;;;;;;;;;;;;15.41;83.12;101762.41;5004323;28;1446;-77
2023/06/28 04:52:07;;;;;;;;;;;;;;;15.43;82.67;101758.88;5004116;28;1966;-77
2023/06/28 04:54:33;;;;;;;;;;;;;;;15.44;83.39;101763.13;5002203;28;1244;-77
2023/06/28 04:56:58;;;;;;;;;;;;;;;15.44;83.19;101761.34;5010360;28;1251;-78
2023/06/28 04:59:23;;;;;;;;;;;;;;;15.47;83.31;101760.22;5008204;28;1336;-76
2023/06/28 05:01:48;;;;;;;;;;;;;;;15.47;83.66;101755.00;5013256;28;1321;-77
2023/06/28 05:04:13;;;;;;;;;;;;;;;15.47;83.56;101755.00;4998630;28;1485;-76
2023/06/28 05:06:39;;;;;;;;;;;;;;;15.45;84.03;101756.94;5005123;28;977;-77
2023/06/28 05:09:04;;;;;;;;;;;;;;;15.44;83.37;101755.28;4998994;28;1273;-77
2023/06/28 05:11:29;;;;;;;;;;;;;;;15.41;83.44;101754.56;5005019;28;1222;-77
2023/06/28 05:13:54;;;;;;;;;;;;;;;15.44;84.12;101760.50;5002765;28;1966;-77
2023/06/28 05:16:20;;;;;;;;;;;;;;;15.48;83.97;101761.88;5000732;28;1084;-79
2023/06/28 05:18:45;;;;;;;;;;;;;;;15.50;84.19;101762.59;5001377;28;1428;-78
2023/06/28 05:21:10;;;;;;;;;;;;;;;15.46;84.66;101764.63;5006119;28;1503;-78
2023/06/28 05:23:36;;;;;;;;;;;;;;;15.45;84.63;101767.38;5001787;28;1545;-78
2023/06/28 05:26:01;;;;;;;;;;;;;;;15.47;84.22;101761.06;4998773;28;1364;-78
2023/06/28 05:28:26;;;;;;;;;;;;;;;15.50;84.81;101766.03;5003729;28;1369;-79
2023/06/28 05:30:51;;;;;;;;;;;;;;;15.54;85.20;101756.09;5001766;28;1689;-78
2023/06/28 05:33:17;;;;;;;;;;;;;;;15.53;84.89;101759.69;5003832;28;1966;-78
2023/06/28 05:35:42;;;;;;;;;;;;;;;15.50;85.11;101770.44;5006453;28;1248;-78
2023/06/28 05:38:07;;;;;;;;;;;;;;;15.47;85.27;101765.47;5004859;28;1511;-78
2023/06/28 05:40:33;;;;;;;;;;;;;;;15.47;85.89;101762.84;5005095;28;1362;-78
2023/06/28 05:42:58;;;;;;;;;;;;;;;15.43;85.56;101759.69;4999172;28;1350;-78
2023/06/28 05:45:27;;;;;;;;;;;;;;;15.41;85.70;101757.19;4999462;28;1979;-78
2023/06/28 05:47:53;;;;;;;;;;;;;;;15.41;85.79;101746.72;5001448;28;1007;-77
2023/06/28 05:50:21;;;;;;;;;;;;;;;15.40;85.95;101755.53;5000075;28;1278;-78
2023/06/28 05:52:46;;;;;;;;;;;;;;;15.39;86.34;101753.88;5007908;28;1968;-78
2023/06/28 05:55:12;;;;;;;;;;;;;;;15.43;86.49;101753.63;5005009;28;1085;-79
2023/06/28 05:57:37;;;;;;;;;;;;;;;15.44;86.16;101755.28;5003048;28;1232;-78
2023/06/28 06:00:07;;;;;;;;;;;;;;;15.47;86.39;101749.78;5000656;28;1535;-78
2023/06/28 06:02:32;;;;;;;;;;;;;;;15.50;86.20;101744.28;5000408;28;1079;-78
2023/06/28 06:04:58;;;;;;;;;;;;;;;15.51;86.67;101746.75;5000347;28;1062;-78
2023/06/28 06:07:23;;;;;;;;;;;;;;;15.51;86.62;101751.16;4995007;28;1613;-78
2023/06/28 06:09:48;;;;;;;;;;;;;;;15.51;87.17;101745.94;5003840;28;1365;-78
2023/06/28 06:12:14;;;;;;;;;;;;;;;15.50;86.83;101744.28;5003160;28;2021;-78
2023/06/28 06:14:39;;;;;;;;;;;;;;;15.49;87.35;101740.84;5002417;28;1218;-78
2023/06/28 06:17:04;;;;;;;;;;;;;;;15.51;87.37;101741.53;5003992;28;1495;-78
2023/06/28 06:19:29;;;;;;;;;;;;;;;15.51;87.80;101743.31;5008837;28;1404;-78
2023/06/28 06:21:54;;;;;;;;;;;;;;;15.46;87.15;101742.91;5009893;28;1290;-78
2023/06/28 06:24:20;;;;;;;;;;;;;;;15.47;87.75;101749.78;5002536;28;1325;-79
2023/06/28 06:26:45;;;;;;;;;;;;;;;15.51;87.59;101746.75;5001109;28;1214;-78
2023/06/28 06:29:10;;;;;;;;;;;;;;;15.53;88.02;101749.22;5005573;28;1729;-78
2023/06/28 06:31:35;;;;;;;;;;;;;;;15.53;87.40;101747.44;5009478;28;1385;-78
2023/06/28 06:34:01;;;;;;;;;;;;;;;15.54;87.70;101740.41;5005701;28;1983;-78
2023/06/28 06:36:27;;;;;;;;;;;;;;;15.56;87.82;101743.75;5005234;28;1316;-78
2023/06/28 06:38:52;;;;;;;;;;;;;;;15.60;88.30;101748.56;5004062;28;1197;-78
2023/06/28 06:41:17;;;;;;;;;;;;;;;15.60;88.59;101745.13;5002418;28;1707;-79
2023/06/28 06:43:43;;;;;;;;;;;;;;;15.63;88.56;101750.13;5005391;28;1165;-78
2023/06/28 06:46:08;;;;;;;;;;;;;;;15.66;88.60;101739.41;5004268;28;1381;-78
2023/06/28 06:48:33;;;;;;;;;;;;;;;15.69;88.61;101743.50;5003943;28;1314;-78
2023/06/28 06:50:58;;;;;;;;;;;;;;;15.70;89.04;101745.16;5000458;28;1244;-78
2023/06/28 06:53:23;;;;;;;;;;;;;;;15.71;88.58;101747.63;4996536;28;1922;-78
2023/06/28 06:55:49;;;;;;;;;;;;;;;15.74;88.57;101752.59;5002473;28;1457;-78
2023/06/28 06:58:14;;;;;;;;;;;;;;;15.75;88.64;101754.25;5004176;28;1187;-77
2023/06/28 07:00:39;;;;;;;;;;;;;;;15.80;88.83;101752.06;5005833;28;1446;-78
2023/06/28 07:03:04;;;;;;;;;;;;;;;15.83;88.30;101750.97;5007312;28;1210;-79
2023/06/28 07:05:29;;;;;;;;;;;;;;;15.85;88.62;101755.09;5006162;28;1296;-77
2023/06/28 07:07:55;;;;;;;;;;;;;;;15.89;88.36;101746.03;5005882;28;1480;-78
2023/06/28 07:10:20;;;;;;;;;;;;;;;15.91;88.86;101748.50;5009046;28;1269;-78
2023/06/28 07:12:45;;;;;;;;;;;;;;;15.93;89.16;101752.59;5012519;28;1890;-78
2023/06/28 07:15:10;;;;;;;;;;;;;;;15.98;88.54;101754.00;5009672;28;1343;-78
2023/06/28 07:17:35;;;;;;;;;;;;;;;15.98;88.77;101748.75;5013711;28;1284;-78
2023/06/28 07:20:01;;;;;;;;;;;;;;;16.01;88.05;101756.34;5008552;28;1292;-78
2023/06/28 07:22:27;;;;;;;;;;;;;;;16.03;88.32;101757.84;5009308;28;1252;-78
2023/06/28 07:24:52;;;;;;;;;;;;;;;16.06;88.79;101762.00;5001529;28;1611;-78
2023/06/28 07:27:17;;;;;;;;;;;;;;;16.08;88.59;101749.59;5007949;28;1499;-78
2023/06/28 07:29:42;;;;;;;;;;;;;;;16.10;88.51;101753.72;5004983;28;1109;-77
2023/06/28 07:32:08;;;;;;;;;;;;;;;16.12;89.05;101756.22;5005928;28;1886;-78
2023/06/28 07:34:33;;;;;;;;;;;;;;;16.16;88.39;101750.53;5013650;28;1663;-77
2023/06/28 07:36:58;;;;;;;;;;;;;;;16.20;89.00;101753.72;4998331;28;1639;-78
2023/06/28 07:39:24;;;;;;;;;;;;;;;16.20;88.42;101748.47;5015005;28;1143;-78
2023/06/28 07:41:49;;;;;;;;;;;;;;;16.22;88.41;101757.00;5013234;28;1511;-78
2023/06/28 07:44:14;;;;;;;;;;;;;;;16.28;88.83;101750.38;5000979;28;1236;-78
2023/06/28 07:46:39;;;;;;;;;;;;;;;16.34;88.19;101760.31;5003040;28;1315;-78
2023/06/28 07:49:04;;;;;;;;;;;;;;;16.39;88.41;101758.91;5001581;28;997;-79
2023/06/28 07:51:30;;;;;;;;;;;;;;;16.42;88.31;101753.41;5004609;28;1149;-78
2023/06/28 07:53:55;;;;;;;;;;;;;;;16.43;87.93;101749.81;5008514;28;1883;-78
2023/06/28 07:56:22;;;;;;;;;;;;;;;16.43;87.99;101744.59;5023717;23;1801;-79
2023/06/28 07:58:47;;;;;;;;;;;;;;;16.45;87.97;101747.88;5010619;28;1119;-78
2023/06/28 08:01:14;;;;;;;;;;;;;;;16.46;87.96;101743.50;5004006;28;1017;-78
2023/06/28 08:03:40;;;;;;;;;;;;;;;16.47;87.64;101753.00;5005025;28;1337;-78
2023/06/28 08:06:05;;;;;;;;;;;;;;;16.50;87.80;101751.88;5004670;28;1170;-78
2023/06/28 08:08:30;;;;;;;;;;;;;;;16.50;87.37;101755.31;4999969;28;991;-77
2023/06/28 08:10:55;;;;;;;;;;;;;;;16.49;87.27;101761.53;5002534;28;1205;-78
2023/06/28 08:13:21;;;;;;;;;;;;;;;16.50;86.97;101754.50;5024314;28;1914;-78
2023/06/28 08:15:46;;;;;;;;;;;;;;;16.51;87.12;101756.16;5004800;28;1320;-78
2023/06/28 08:18:12;;;;;;;;;;;;;;;16.51;86.68;101766.63;5006716;28;1272;-78
2023/06/28 08:20:38;;;;;;;;;;;;;;;16.49;86.92;101750.22;5006592;28;1301;-77
2023/06/28 08:23:03;;;;;;;;;;;;;;;16.45;86.83;101752.28;5006626;28;1396;-78
2023/06/28 08:25:28;;;;;;;;;;;;;;;16.43;87.46;101749.81;5006001;28;1511;-78
2023/06/28 08:27:53;;;;;;;;;;;;;;;16.46;87.68;101757.41;4997241;28;1283;-78
2023/06/28 08:30:18;;;;;;;;;;;;;;;16.50;87.42;101754.50;5004024;28;1347;-78
2023/06/28 08:32:44;;;;;;;;;;;;;;;16.50;87.63;101759.72;5005830;28;1906;-78
2023/06/28 08:35:10;;;;;;;;;;;;;;;16.52;87.88;101757.81;5007623;28;1479;-78
2023/06/28 08:37:36;;;;;;;;;;;;;;;16.54;87.03;101755.88;5004431;28;1586;-78
2023/06/28 08:40:01;;;;;;;;;;;;;;;16.55;87.28;101753.09;5004636;28;1476;-78
2023/06/28 08:42:28;;;;;;;;;;;;;;;16.57;87.25;101751.16;5008166;28;1225;-78
2023/06/28 08:44:55;;;;;;;;;;;;;;;16.55;87.37;101757.53;5011272;28;1218;-77
2023/06/28 08:47:20;;;;;;;;;;;;;;;16.56;87.51;101753.94;4997963;28;1349;-78
2023/06/28 08:49:47;;;;;;;;;;;;;;;16.60;87.43;101763.16;5003035;28;1286;-77
2023/06/28 08:52:14;;;;;;;;;;;;;;;16.64;87.16;101762.75;5003349;28;1910;-77
2023/06/28 08:54:41;;;;;;;;;;;;;;;16.66;87.37;101766.03;5005065;28;1252;-77
2023/06/28 08:57:07;;;;;;;;;;;;;;;16.65;87.21;101758.34;5019879;28;1298;-77
2023/06/28 08:59:32;;;;;;;;;;;;;;;16.68;87.06;101752.78;5000645;28;1299;-78
2023/06/28 09:01:59;;;;;;;;;;;;;;;16.69;87.16;101759.72;5005520;28;1141;-77
2023/06/28 09:04:28;;;;;;;;;;;;;;;16.71;87.21;101757.78;5002657;28;1272;-78
2023/06/28 09:06:55;;;;;;;;;;;;;;;16.72;86.88;101749.78;5004270;28;1463;-78
2023/06/28 09:09:20;;;;;;;;;;;;;;;16.73;87.22;101750.59;5007991;28;1554;-78
2023/06/28 09:11:46;;;;;;;;;;;;;;;16.73;87.01;101750.59;5013379;28;1452;-77
2023/06/28 09:14:11;;;;;;;;;;;;;;;16.75;86.93;101753.94;5005609;28;1965;-77
2023/06/28 09:16:37;;;;;;;;;;;;;;;16.75;86.92;101753.94;5002953;28;1388;-78
2023/06/28 09:19:02;;;;;;;;;;;;;;;16.81;86.65;101757.78;5007762;28;1419;-77
2023/06/28 09:21:28;;;;;;;;;;;;;;;16.85;86.52;101749.47;5008933;28;1764;-78
2023/06/28 09:23:54;;;;;;;;;;;;;;;16.89;86.66;101750.84;5007875;28;1249;-77
2023/06/28 09:26:20;;;;;;;;;;;;;;;16.93;86.43;101752.22;4998907;28;1219;-77
2023/06/28 09:28:45;;;;;;;;;;;;;;;16.97;86.36;101748.34;5005018;28;1229;-77
2023/06/28 09:31:10;;;;;;;;;;;;;;;17.03;86.52;101746.06;5020695;28;1271;-78
2023/06/28 09:33:35;;;;;;;;;;;;;;;17.10;87.42;101736.69;5001262;28;1953;-78
2023/06/28 09:36:02;;;;;;;;;;;;;;;17.17;86.40;101743.81;5008318;28;1094;-79
2023/06/28 09:38:27;;;;;;;;;;;;;;;17.27;86.25;101743.78;5002990;28;1311;-78
2023/06/28 09:41:02;;;;;;;;;;;;;;;17.32;85.79;101744.16;5004384;28;1200;-78
2023/06/28 09:43:31;;;;;;;;;;;;;;;17.36;85.46;101745.50;5007383;28;1196;-78
2023/06/28 09:45:56;;;;;;;;;;;;;;;17.45;85.76;101736.75;5002204;28;1373;-78
2023/06/28 09:48:23;;;;;;;;;;;;;;;17.51;85.31;101745.84;5004972;28;1275;-78
2023/06/28 09:50:48;;;;;;;;;;;;;;;17.55;84.56;101736.72;5005650;28;1316;-76
2023/06/28 09:53:15;;;;;;;;;;;;;;;17.61;84.17;101740.53;5010378;28;1961;-78
2023/06/28 09:55:41;;;;;;;;;;;;;;;17.67;83.65;101737.31;4999561;28;1235;-77
2023/06/28 09:58:16;;;;;;;;;;;;;;;17.74;83.97;101735.75;5004897;28;997;-77
2023/06/28 10:00:42;;;;;;;;;;;;;;;17.87;83.80;101741.44;5005057;28;1065;-77
2023/06/28 10:03:09;;;;;;;;;;;;;;;17.96;83.49;101743.19;5000874;28;1492;-77
2023/06/28 10:05:35;;;;;;;;;;;;;;;18.03;82.83;101736.34;5003323;28;1419;-77
2023/06/28 10:08:02;;;;;;;;;;;;;;;18.07;82.47;101739.50;5006641;28;1092;-78
2023/06/28 10:10:28;;;;;;;;;;;;;;;18.13;81.82;101735.44;5018390;28;1164;-77
2023/06/28 10:12:55;;;;;;;;;;;;;;;18.18;81.73;101734.03;5001529;28;1890;-77
2023/06/28 10:15:22;;;;;;;;;;;;;;;18.26;81.46;101730.63;4997354;28;1342;-77
2023/06/28 10:17:49;;;;;;;;;;;;;;;18.31;80.82;101734.44;5006853;28;1165;-77
2023/06/28 10:20:14;;;;;;;;;;;;;;;18.39;80.63;101731.03;4995343;28;997;-77
2023/06/28 10:22:40;;;;;;;;;;;;;;;18.48;80.63;101735.38;5000833;28;1249;-78
2023/06/28 10:25:05;;;;;;;;;;;;;;;18.59;80.57;101731.66;5000808;28;1410;-77
2023/06/28 10:27:33;;;;;;;;;;;;;;;18.72;80.17;101726.00;5004134;28;1209;-77
2023/06/28 10:30:00;;;;;;;;;;;;;;;18.89;80.26;101727.72;4999823;28;1228;-78
2023/06/28 10:32:25;;;;;;;;;;;;;;;19.00;79.98;101730.09;5003400;28;1948;-77
2023/06/28 10:34:51;;;;;;;;;;;;;;;19.09;79.49;101733.56;5002393;28;1537;-77
2023/06/28 10:37:20;;;;;;;;;;;;;;;19.14;79.39;101735.72;4999451;28;1372;-77
2023/06/28 10:39:45;;;;;;;;;;;;;;;19.15;78.85;101726.84;5006181;28;1289;-77
2023/06/28 10:42:11;;;;;;;;;;;;;;;19.20;79.31;101727.19;5003484;28;1441;-77
2023/06/28 10:44:49;;;;;;;;;;;;;;;19.25;79.13;101727.53;5003916;28;1617;-78
2023/06/28 10:47:16;;;;;;;;;;;;;;;19.31;79.14;101726.88;5002957;28;1335;-77
2023/06/28 10:49:41;;;;;;;;;;;;;;;19.35;78.99;101725.59;5001450;28;1538;-78
2023/06/28 10:52:13;;;;;;;;;;;;;;;19.41;78.91;101726.75;5000990;28;1346;-77
2023/06/28 10:54:39;;;;;;;;;;;;;;;19.47;78.45;101721.66;4998246;28;1890;-77
2023/06/28 10:57:08;;;;;;;;;;;;;;;19.52;77.82;101724.66;4998235;28;1400;-77
2023/06/28 10:59:35;;;;;;;;;;;;;;;19.57;77.73;101717.09;5014682;28;1191;-78
2023/06/28 11:02:00;;;;;;;;;;;;;;;19.63;77.17;101716.47;5003576;28;1293;-77
2023/06/28 11:04:25;;;;;;;;;;;;;;;19.67;76.72;101711.72;5003778;28;1241;-78
2023/06/28 11:07:03;;;;;;;;;;;;;;;19.73;76.78;101704.97;5008505;28;1433;-77
2023/06/28 11:09:29;;;;;;;;;;;;;;;19.78;76.51;101707.91;5003745;28;1304;-80
2023/06/28 11:11:56;;;;;;;;;;;;;;;19.84;76.60;101709.88;5006188;28;1391;-77
2023/06/28 11:14:27;;;;;;;;;;;;;;;19.89;76.22;101705.78;5001649;28;1911;-77
2023/06/28 11:17:00;;;;;;;;;;;;;;;20.01;76.01;101698.38;4998274;28;1290;-78
2023/06/28 11:19:26;;;;;;;;;;;;;;;20.10;75.82;101697.38;5004295;28;1276;-77
2023/06/28 11:21:55;;;;;;;;;;;;;;;20.23;75.81;101694.22;5002072;28;1240;-77
2023/06/28 11:24:24;;;;;;;;;;;;;;;20.35;75.42;101697.34;5003568;28;1235;-76
2023/06/28 11:26:49;;;;;;;;;;;;;;;20.40;75.25;101702.94;5004361;28;1424;-77
2023/06/28 11:29:18;;;;;;;;;;;;;;;20.55;75.97;101701.28;5002635;28;1149;-77
2023/06/28 11:31:48;;;;;;;;;;;;;;;20.66;75.52;101700.91;4998755;28;1364;-79
2023/06/28 11:34:14;;;;;;;;;;;;;;;20.76;75.25;101708.63;5000851;28;1890;-77
2023/06/28 11:36:41;;;;;;;;;;;;;;;20.86;74.78;101705.78;5003324;28;1363;-75
2023/06/28 11:39:07;;;;;;;;;;;;;;;20.97;74.20;101700.13;5002446;28;1542;-75
2023/06/28 11:41:35;;;;;;;;;;;;;;;21.08;74.02;101707.66;5006116;28;1192;-75
2023/06/28 11:44:07;;;;;;;;;;;;;;;21.20;73.73;101701.00;5002628;28;1394;-75
2023/06/28 11:46:33;;;;;;;;;;;;;;;21.27;73.73;101702.94;5007792;28;1317;-75
2023/06/28 11:49:01;;;;;;;;;;;;;;;21.40;73.35;101703.25;5003661;28;1406;-75
2023/06/28 11:51:26;;;;;;;;;;;;;;;21.52;73.18;101695.72;5007600;28;1348;-74
2023/06/28 11:53:54;;;;;;;;;;;;;;;21.63;73.28;101695.31;5003842;28;1957;-76
2023/06/28 11:56:19;;;;;;;;;;;;;;;21.70;73.00;101705.00;5003574;28;1394;-76
2023/06/28 11:58:44;;;;;;;;;;;;;;;21.74;72.43;101701.00;5005445;28;1694;-75
2023/06/28 12:01:20;;;;;;;;;;;;;;;21.73;72.45;101699.38;5003947;28;1314;-74
2023/06/28 12:03:45;;;;;;;;;;;;;;;21.78;72.29;101698.81;5003274;28;1365;-74
2023/06/28 12:06:11;;;;;;;;;;;;;;;21.83;72.00;101700.94;5005132;28;1425;-75
2023/06/28 12:08:37;;;;;;;;;;;;;;;21.92;71.90;101705.97;5005162;28;1636;-74
2023/06/28 12:11:10;;;;;;;;;;;;;;;22.01;71.73;101704.88;4997471;28;1302;-74
2023/06/28 12:13:35;;;;;;;;;;;;;;;22.04;71.16;101698.44;5006153;28;1894;-75
2023/06/28 12:16:14;;;;;;;;;;;;;;;22.02;71.00;101700.41;5005346;28;1358;-75
2023/06/28 12:18:58;;;;;;;;;;;;;;;21.99;71.23;101706.09;5002487;28;1019;-76
2023/06/28 12:21:24;;;;;;;;;;;;;;;21.99;71.38;101695.50;4998840;28;1504;-75
2023/06/28 12:23:50;;;;;;;;;;;;;;;22.05;71.22;101692.16;5002309;28;1252;-74
2023/06/28 12:26:15;;;;;;;;;;;;;;;22.15;71.01;101699.88;4998357;28;1572;-73
2023/06/28 12:28:40;;;;;;;;;;;;;;;22.25;70.88;101700.41;5003820;28;1581;-75
2023/06/28 12:31:09;;;;;;;;;;;;;;;22.32;70.47;101689.94;5007057;28;1321;-74
2023/06/28 12:33:35;;;;;;;;;;;;;;;22.35;70.25;101708.88;5001370;28;1961;-73
2023/06/28 12:36:00;;;;;;;;;;;;;;;22.36;69.75;101696.50;5006318;28;1409;-74
2023/06/28 12:38:25;;;;;;;;;;;;;;;22.35;70.20;101684.28;5004885;28;1452;-73
2023/06/28 12:40:50;;;;;;;;;;;;;;;22.34;70.20;101682.66;5006329;28;1361;-74